Tuesday, October 16, 2018, 10:01 AM GMT
Back to Local

CYHZ, Halifax International Airport

Location: , , Canada Lat: 44.883
Local Time: 10:01 AM GMT (10:01 GMT) Lon: -63.5
Time Zone: GMT Elev: 475 ft

Show me the last for .
Show Coded

Time T Td Feel RH Dir Speed Gust Alt SLP Vis Weather Sky Remarks
2018-10-16 09:46 59 59 - 100 260° 15 29 29.43 29.44 8 -RA SCT018 OVC080 None
2018-10-16 09:10 63 63 - 100 240° 20 29 29.42 29.42 4 RA BR BKN011 OVC025 None
2018-10-16 09:00 63 63 - 100 240° 17 24 29.41 29.42 3 -RA BR BKN005 OVC010 None
2018-10-16 08:00 63 63 - 100 220° 22 31 29.44 29.44 3 -RA BR OVC005 Pressure falling rapidly
2018-10-16 07:00 61 61 - 100 210° 23 36 29.50 29.51 4 -RA BR OVC005 Pressure falling rapidly
2018-10-16 06:00 59 59 - 100 190° 24 36 29.58 29.59 3 -RA BR BKN005 OVC010 Pressure falling rapidly
2018-10-16 05:00 57 57 - 100 170° 21 35 29.66 29.67 3 -RA BR BKN005 OVC010 Pressure falling rapidly
2018-10-16 04:34 55 55 - 100 170° 20 30 29.70 29.71 2 -RA BR BKN005 OVC010 Pressure falling rapidly
2018-10-16 04:00 54 54 - 100 170° 18 29 29.76 29.77 3 -RA BR SCT005 OVC010 Pressure falling rapidly
2018-10-16 03:38 52 52 - 100 170° 16 22 29.78 29.79 3 -RA BR SCT005 OVC011 Pressure falling rapidly
2018-10-16 03:00 52 52 - 100 170° 14 24 29.83 29.83 5 -RA OVC030 Pressure falling rapidly
2018-10-16 02:04 52 50 - 93 170° 16 24 29.89 29.90 15 -RA FEW011 SCT024 OVC060 Pressure falling rapidly
2018-10-16 02:00 52 50 - 93 180° 17 25 29.89 29.90 14 SCT013 BKN023 OVC060 Pressure falling rapidly
2018-10-16 01:49 54 52 - 93 180° 20 28 29.91 29.92 15 SCT013 OVC022 Pressure falling rapidly
2018-10-16 01:00 54 50 - 87 180° 16 22 29.95 29.96 15 -RA SCT020 OVC038 Pressure falling rapidly
2018-10-16 00:33 54 50 - 87 190° 13 20 29.98 30.00 15 -RA BKN019 OVC065 None
2018-10-16 00:00 54 48 - 81 180° 13 - 30.00 30.01 15 SCT022 OVC085 None
2018-10-15 23:00 52 46 - 81 170° 12 18 30.03 30.04 15 BKN100 BKN140 None
2018-10-15 22:00 52 45 - 76 190° 12 18 30.07 30.09 15 BKN120 BKN150 None
2018-10-15 21:00 54 43 - 66 190° 13 20 30.09 30.10 15 FEW030 SCT180 BKN280 None
2018-10-15 20:00 54 43 - 66 190° 18 24 30.09 30.11 15 BKN032 BKN300 None
2018-10-15 19:00 55 43 - 62 190° 15 22 30.12 30.14 15 SCT033 BKN300 Pressure falling rapidly
2018-10-15 18:00 57 39 - 50 210° 14 22 30.15 30.16 15 SCT040 BKN260 None
2018-10-15 17:00 57 37 - 47 210° 17 - 30.17 30.18 15 FEW038 BKN260 None
2018-10-15 16:00 55 34 - 43 220° 10 - 30.19 30.21 15 FEW035 BKN260 None
2018-10-15 15:00 54 37 - 54 210° 7 - 30.22 30.23 15 BKN260 None
2018-10-15 14:00 52 36 - 53 210° 5 - 30.22 30.24 15 BKN260 None
2018-10-15 13:00 48 37 46 66 280° 6 - 30.22 30.24 15 FEW090 FEW260 None
2018-10-15 12:00 45 36 41 70 280° 7 - 30.21 30.23 15 SCT260 None
2018-10-15 11:00 37 34 32 86 230° 7 - 30.21 30.23 15 FEW090 SCT260 None

Support USWX by starting your Amazon purchase here.